TimeEDT,TemperatureF,Dew PointF,Humidity,Sea Level PressureIn,VisibilityMPH,Wind Direction,Wind SpeedMPH,Gust SpeedMPH,PrecipitationIn,Events,Conditions,WindDirDegrees,DateUTC
12:00 AM,77.0,73.4,89,30.02,-9999.0,Calm,Calm,-,N/A,,Clear,0,2013-08-28 04:00:00
1:00 AM,77.0,73.4,89,30.01,6.2,Calm,Calm,-,N/A,,Partly Cloudy,0,2013-08-28 05:00:00
2:00 AM,77,76,97,29.99,9,Calm,Calm,,,,Scattered Clouds,,2013-08-28 06:00:00
2:00 AM,77.0,77.0,100,29.99,6.2,Calm,Calm,-,N/A,,Partly Cloudy,0,2013-08-28 06:00:00
3:00 AM,77.0,73.4,89,29.97,6.2,North,2.3,-,N/A,,Partly Cloudy,360,2013-08-28 07:00:00
4:00 AM,78.8,73.4,83,29.97,6.2,Calm,Calm,-,N/A,,Partly Cloudy,0,2013-08-28 08:00:00
5:00 AM,77,76,98,29.98,9,Calm,Calm,,,,Scattered Clouds,,2013-08-28 09:00:00
5:00 AM,77.0,77.0,100,29.98,6.2,Calm,Calm,-,N/A,,Partly Cloudy,0,2013-08-28 09:00:00
6:00 AM,78.8,73.4,83,29.99,6.2,Calm,Calm,-,N/A,,Mostly Cloudy,0,2013-08-28 10:00:00
7:00 AM,78.8,73.4,83,29.99,6.2,Calm,Calm,-,N/A,,Scattered Clouds,0,2013-08-28 11:00:00
8:00 AM,79,76,89,30.01,9,East,3.5,,,,Partly Cloudy,100,2013-08-28 12:00:00
8:00 AM,78.8,77.0,94,30.01,6.2,East,3.5,-,N/A,,Scattered Clouds,100,2013-08-28 12:00:00
11:00 AM,-9999,-9999,,30.06,9,ESE,9.2,,,,Scattered Clouds,120,2013-08-28 15:00:00
11:00 AM,87.8,73.4,62,30.06,6.2,ESE,9.2,-,N/A,,Partly Cloudy,120,2013-08-28 15:00:00
12:00 PM,87.8,69.8,55,30.05,6.2,East,8.1,-,N/A,,Mostly Cloudy,100,2013-08-28 16:00:00
1:00 PM,87.8,69.8,55,30.04,6.2,East,6.9,-,N/A,,Mostly Cloudy,100,2013-08-28 17:00:00
2:00 PM,-9999,-9999,,30.03,9,ENE,6.9,,,,Mostly Cloudy,70,2013-08-28 18:00:00
3:00 PM,87.8,75.2,66,30.01,6.2,NE,6.9,-,N/A,,Mostly Cloudy,50,2013-08-28 19:00:00
4:00 PM,86.0,75.2,70,29.98,6.2,ENE,5.8,-,N/A,,Scattered Clouds,60,2013-08-28 20:00:00
5:00 PM,86.0,78.8,79,29.98,6.2,SE,11.5,-,N/A,,Scattered Clouds,140,2013-08-28 21:00:00
6:00 PM,86.0,73.4,66,29.98,6.2,East,6.9,-,N/A,,Mostly Cloudy,100,2013-08-28 22:00:00
7:00 PM,84.2,75.2,74,29.98,6.2,East,9.2,-,N/A,,Mostly Cloudy,90,2013-08-28 23:00:00
8:00 PM,83,78,80,29.98,9,East,6.9,,,,Scattered Clouds,90,2013-08-29 00:00:00
8:00 PM,84.2,78.8,84,29.97,6.2,East,6.9,-,N/A,,Mostly Cloudy,90,2013-08-29 00:00:00
9:00 PM,82.4,75.2,79,30.00,6.2,SE,3.5,-,N/A,,Mostly Cloudy,130,2013-08-29 01:00:00
10:00 PM,82.4,75.2,79,30.01,6.2,SE,4.6,-,N/A,,Scattered Clouds,130,2013-08-29 02:00:00
11:00 PM,82.4,78.8,89,30.04,6.2,SE,3.5,-,N/A,,Partly Cloudy,130,2013-08-29 03:00:00